createdAt,value
2018-07-28T00:01:31.475Z,47.98
2018-07-28T00:03:20.740Z,47.94
2018-07-28T00:04:59.443Z,47.98
2018-07-28T00:06:40.141Z,47.64
2018-07-28T00:08:17.868Z,47.83
2018-07-28T00:12:19.454Z,48.38
2018-07-28T00:13:58.503Z,47.97
2018-07-28T00:15:36.456Z,48.11
2018-07-28T00:17:39.208Z,47.82
2018-07-28T00:19:18.386Z,48.21
2018-07-28T00:21:00.825Z,48.55
2018-07-28T00:22:40.657Z,48.41
2018-07-28T00:24:20.734Z,47.89
2018-07-28T00:26:07.569Z,47.88
2018-07-28T00:28:03.532Z,48.41
2018-07-28T00:29:46.843Z,48.62
2018-07-28T00:31:29.340Z,47.32
2018-07-28T00:33:10.497Z,47.79
2018-07-28T00:34:49.449Z,47.52
2018-07-28T00:36:43.033Z,47.84
2018-07-28T00:40:08.468Z,48.36
2018-07-28T00:41:52.433Z,48.48
2018-07-28T00:43:30.276Z,48.57
2018-07-28T00:46:16.234Z,47.81
2018-07-28T00:47:59.245Z,48.00
2018-07-28T00:49:43.381Z,48.59
2018-07-28T00:51:22.457Z,48.40
2018-07-28T00:53:01.413Z,49.52
2018-07-28T00:54:40.512Z,49.30
2018-07-28T00:58:42.540Z,49.19
2018-07-28T01:00:21.310Z,50.13
2018-07-28T01:03:50.260Z,49.63
2018-07-28T01:05:42.452Z,49.70
2018-07-28T01:07:22.393Z,50.07
2018-07-28T01:09:23.535Z,50.75
2018-07-28T01:11:05.031Z,50.67
2018-07-28T01:12:42.434Z,50.42
2018-07-28T01:14:17.522Z,50.71
2018-07-28T01:15:53.563Z,51.79
2018-07-28T01:17:29.813Z,51.64
2018-07-28T01:19:07.341Z,51.44
2018-07-28T01:20:42.554Z,50.78
2018-07-28T01:22:17.844Z,52.02
2018-07-28T01:23:53.690Z,51.46
2018-07-28T01:25:28.876Z,51.06
2018-07-28T01:27:04.501Z,50.79
2018-07-28T01:28:39.680Z,51.70
2018-07-28T01:30:21.812Z,51.62
2018-07-28T01:31:56.970Z,51.40
2018-07-28T01:33:32.944Z,51.22
2018-07-28T01:35:11.008Z,52.05
2018-07-28T01:36:46.198Z,51.58
2018-07-28T01:38:21.350Z,52.31
2018-07-28T01:39:56.432Z,52.53
2018-07-28T01:41:31.581Z,52.02
2018-07-28T01:43:07.743Z,52.25
2018-07-28T01:44:43.077Z,53.22
2018-07-28T01:46:19.589Z,52.54
2018-07-28T01:47:56.125Z,52.00
2018-07-28T01:49:31.757Z,51.72
2018-07-28T01:51:07.635Z,52.90
2018-07-28T01:52:43.358Z,51.05
2018-07-28T01:54:18.516Z,51.86
2018-07-28T01:55:53.669Z,52.42
2018-07-28T01:57:29.288Z,52.46
2018-07-28T01:59:05.710Z,52.00
2018-07-28T02:00:42.624Z,52.17
2018-07-28T02:02:18.732Z,52.93
2018-07-28T02:03:54.229Z,52.82
2018-07-28T02:05:29.396Z,53.78
2018-07-28T02:07:07.184Z,52.56
2018-07-28T02:08:42.456Z,53.02
2018-07-28T02:10:19.138Z,53.65
2018-07-28T02:11:54.332Z,54.31
2018-07-28T02:13:33.345Z,53.35
2018-07-28T02:15:09.412Z,53.21
2018-07-28T02:16:45.333Z,52.78
2018-07-28T02:18:20.489Z,53.37
2018-07-28T02:20:07.535Z,53.28
2018-07-28T02:21:43.232Z,54.33
2018-07-28T02:23:18.412Z,52.78
2018-07-28T02:24:54.138Z,53.39
2018-07-28T02:26:29.336Z,53.11
2018-07-28T02:28:04.502Z,53.01
2018-07-28T02:29:39.697Z,53.84
2018-07-28T02:31:14.979Z,53.72
2018-07-28T02:32:50.563Z,54.96
2018-07-28T02:34:26.658Z,53.91
2018-07-28T02:36:01.868Z,54.21
2018-07-28T02:37:37.709Z,54.04
2018-07-28T02:39:13.422Z,53.97
2018-07-28T02:40:48.667Z,54.76
2018-07-28T02:42:24.696Z,54.78
2018-07-28T02:44:01.217Z,55.54
2018-07-28T02:45:37.809Z,54.20
2018-07-28T02:47:18.285Z,53.85
2018-07-28T02:49:00.470Z,54.86
2018-07-28T02:50:39.924Z,54.65
2018-07-28T02:52:15.173Z,54.30
2018-07-28T02:53:50.436Z,54.02
2018-07-28T02:55:26.800Z,55.76
2018-07-28T02:57:08.368Z,55.38
2018-07-28T02:58:43.798Z,55.45
2018-07-28T03:00:18.976Z,56.08
2018-07-28T03:01:54.717Z,54.68
2018-07-28T03:03:30.004Z,55.37
2018-07-28T03:05:07.952Z,55.28
2018-07-28T03:06:54.323Z,55.87
2018-07-28T03:08:29.480Z,55.93
2018-07-28T03:10:05.798Z,55.18
2018-07-28T03:11:41.945Z,56.94
2018-07-28T03:13:17.743Z,55.45
2018-07-28T03:14:54.638Z,56.04
2018-07-28T03:16:30.662Z,56.94
2018-07-28T03:18:08.255Z,56.38
2018-07-28T03:19:43.460Z,55.79
2018-07-28T03:21:19.034Z,56.19
2018-07-28T03:22:55.945Z,56.03
2018-07-28T03:24:31.762Z,55.90
2018-07-28T03:26:07.454Z,56.75
2018-07-28T03:27:42.778Z,56.40
2018-07-28T03:29:18.329Z,56.98
2018-07-28T03:30:53.841Z,56.74
2018-07-28T03:32:29.585Z,56.18
2018-07-28T03:34:05.112Z,56.02
2018-07-28T03:35:40.781Z,55.35
2018-07-28T03:37:16.054Z,55.22
2018-07-28T03:38:52.913Z,55.34
2018-07-28T03:40:28.214Z,56.03
2018-07-28T03:42:03.411Z,56.10
2018-07-28T03:43:39.208Z,56.56
2018-07-28T03:45:15.496Z,55.62
2018-07-28T03:46:53.011Z,56.80
2018-07-28T03:48:28.338Z,57.26
2018-07-28T03:50:03.574Z,56.11
2018-07-28T03:51:39.067Z,56.43
2018-07-28T03:53:14.230Z,57.23
2018-07-28T03:54:49.407Z,57.22
2018-07-28T03:56:24.614Z,57.73
2018-07-28T03:58:01.503Z,57.11
2018-07-28T03:59:36.797Z,58.59
2018-07-28T04:01:13.458Z,57.87
2018-07-28T04:02:48.713Z,58.14
2018-07-28T04:04:23.818Z,59.01
2018-07-28T04:05:59.572Z,59.52
2018-07-28T04:07:34.690Z,59.40
2018-07-28T04:09:10.690Z,59.13
2018-07-28T04:10:45.925Z,59.60
2018-07-28T04:12:21.990Z,59.21
2018-07-28T04:13:58.416Z,59.58
2018-07-28T04:15:34.332Z,58.99
2018-07-28T04:17:09.764Z,59.30
2018-07-28T04:18:44.877Z,58.82
2018-07-28T04:20:22.976Z,59.11
2018-07-28T04:21:58.221Z,58.85
2018-07-28T04:23:33.418Z,57.95
2018-07-28T04:25:09.548Z,57.61
2018-07-28T04:26:44.746Z,58.32
2018-07-28T04:28:20.489Z,59.59
2018-07-28T04:29:55.657Z,58.45
2018-07-28T04:31:30.955Z,58.83
2018-07-28T04:33:06.346Z,58.70
2018-07-28T04:34:41.442Z,58.88
2018-07-28T04:36:17.645Z,58.69
2018-07-28T04:37:52.821Z,59.26
2018-07-28T04:39:28.119Z,58.94
2018-07-28T04:41:04.175Z,59.83
2018-07-28T04:42:40.114Z,60.07
2018-07-28T04:44:15.557Z,59.83
2018-07-28T04:45:50.721Z,59.01
2018-07-28T04:47:26.270Z,59.43
2018-07-28T04:49:01.393Z,58.96
2018-07-28T04:50:38.261Z,59.10
2018-07-28T04:52:13.872Z,59.31
2018-07-28T04:53:49.038Z,57.76
2018-07-28T04:55:24.187Z,57.49
2018-07-28T04:56:59.332Z,57.71
2018-07-28T04:58:34.597Z,56.68
2018-07-28T05:00:09.835Z,57.24
2018-07-28T05:01:45.003Z,57.41
2018-07-28T05:03:21.209Z,55.45
2018-07-28T05:04:57.025Z,54.97
2018-07-28T05:06:34.684Z,55.35
2018-07-28T05:08:17.880Z,55.14
2018-07-28T05:09:52.981Z,54.70
2018-07-28T05:11:28.101Z,55.43
2018-07-28T05:13:03.307Z,55.22
2018-07-28T05:14:39.027Z,53.17
2018-07-28T05:16:14.522Z,52.40
2018-07-28T05:17:49.684Z,52.52
2018-07-28T05:19:24.934Z,51.41
2018-07-28T05:21:00.220Z,51.93
2018-07-28T05:22:35.701Z,52.72
2018-07-28T05:24:11.402Z,51.72
2018-07-28T05:25:46.606Z,50.60
2018-07-28T05:27:22.849Z,50.15
2018-07-28T05:29:00.757Z,49.40
2018-07-28T05:30:37.007Z,50.06
2018-07-28T05:32:12.113Z,50.42
2018-07-28T05:33:47.310Z,49.09
2018-07-28T05:35:22.707Z,47.36
2018-07-28T05:36:58.229Z,46.99
2018-07-28T05:38:33.345Z,46.13
2018-07-28T05:40:08.778Z,45.27
2018-07-28T05:41:43.974Z,46.71
2018-07-28T05:43:19.209Z,46.79
2018-07-28T05:44:54.617Z,45.91
2018-07-28T05:46:29.802Z,46.20
2018-07-28T05:48:05.003Z,45.00
2018-07-28T05:49:40.145Z,43.24
2018-07-28T05:51:15.210Z,43.09
2018-07-28T05:52:51.618Z,42.91
2018-07-28T05:54:27.745Z,43.90
2018-07-28T05:56:02.940Z,41.15
2018-07-28T05:57:38.174Z,41.22
2018-07-28T05:59:14.660Z,42.07
2018-07-28T06:00:49.765Z,40.08
2018-07-28T06:02:25.074Z,40.86
2018-07-28T06:04:01.983Z,40.57
2018-07-28T06:05:38.442Z,40.43
2018-07-28T06:07:15.065Z,40.81
2018-07-28T06:08:51.240Z,40.14
2018-07-28T06:10:28.627Z,41.35
2018-07-28T06:12:06.080Z,40.66
2018-07-28T06:13:41.665Z,41.91
2018-07-28T06:15:17.849Z,41.02
2018-07-28T06:16:53.554Z,42.47
2018-07-28T06:18:30.152Z,42.59
2018-07-28T06:20:05.378Z,42.06
2018-07-28T06:21:40.707Z,43.08
2018-07-28T06:23:20.660Z,42.56
2018-07-28T06:24:56.719Z,43.18
2018-07-28T06:26:31.927Z,42.68
2018-07-28T06:28:07.298Z,43.23
2018-07-28T06:29:42.612Z,43.13
2018-07-28T06:31:20.227Z,44.73
2018-07-28T06:32:55.694Z,44.71
2018-07-28T06:34:30.853Z,45.89
2018-07-28T06:36:07.410Z,45.99
2018-07-28T06:37:45.606Z,46.44
2018-07-28T06:39:20.797Z,46.70
2018-07-28T06:40:56.168Z,46.56
2018-07-28T06:42:31.420Z,46.81
2018-07-28T06:44:09.352Z,48.14
2018-07-28T06:45:44.664Z,47.38
2018-07-28T06:47:22.642Z,47.73
2018-07-28T06:49:00.720Z,47.94
2018-07-28T06:50:38.495Z,48.29
2018-07-28T06:52:16.010Z,48.90
2018-07-28T06:53:51.364Z,48.36
2018-07-28T06:55:28.469Z,49.04
2018-07-28T06:57:04.366Z,48.31
2018-07-28T06:58:40.856Z,48.73
2018-07-28T07:00:20.342Z,48.16
2018-07-28T07:01:55.466Z,47.93
2018-07-28T07:03:30.622Z,49.49
2018-07-28T07:05:06.840Z,48.87
2018-07-28T07:06:43.296Z,49.15
2018-07-28T07:08:20.298Z,49.29
2018-07-28T07:09:55.978Z,49.51
2018-07-28T07:11:32.757Z,49.88
2018-07-28T07:13:09.556Z,50.01
2018-07-28T07:14:46.248Z,50.41
2018-07-28T07:16:27.575Z,50.39
2018-07-28T07:18:02.774Z,52.52
2018-07-28T07:19:38.938Z,52.90
2018-07-28T07:21:14.598Z,52.97
2018-07-28T07:22:50.733Z,53.69
2018-07-28T07:24:27.282Z,54.12
2018-07-28T07:26:05.494Z,53.65
2018-07-28T07:27:40.684Z,54.20
2018-07-28T07:29:16.618Z,54.50
2018-07-28T07:30:53.102Z,55.31
2018-07-28T07:32:29.341Z,55.64
2018-07-28T07:34:05.723Z,55.85
2018-07-28T07:35:43.551Z,57.33
2018-07-28T07:37:20.802Z,56.81
2018-07-28T07:38:57.654Z,61.53
2018-07-28T07:40:33.034Z,62.75
2018-07-28T07:42:20.824Z,66.01
2018-07-28T07:43:57.402Z,66.30
2018-07-28T07:45:38.921Z,69.17
2018-07-28T07:47:14.523Z,70.50
2018-07-28T07:48:53.084Z,70.79
2018-07-28T07:50:33.827Z,73.13
2018-07-28T07:52:11.484Z,73.30
2018-07-28T07:53:51.514Z,73.95
2018-07-28T07:55:31.844Z,74.87
2018-07-28T07:57:09.767Z,75.23
2018-07-28T07:58:47.294Z,76.58
2018-07-28T08:00:22.974Z,75.89
2018-07-28T08:01:59.515Z,77.27
2018-07-28T08:03:37.114Z,77.26
2018-07-28T08:05:13.370Z,78.06
2018-07-28T08:06:48.901Z,78.87
2018-07-28T08:08:25.297Z,78.07
2018-07-28T08:10:02.306Z,78.53
2018-07-28T08:11:38.698Z,78.67
2018-07-28T08:13:14.535Z,80.03
2018-07-28T08:14:52.000Z,79.92
2018-07-28T08:16:28.778Z,78.83
2018-07-28T08:18:03.953Z,78.98
2018-07-28T08:19:41.282Z,79.48
2018-07-28T08:21:20.508Z,79.21
2018-07-28T08:22:58.112Z,78.76
2018-07-28T08:24:33.347Z,78.09
2018-07-28T08:26:08.621Z,79.62
2018-07-28T08:27:45.441Z,78.54
2018-07-28T08:29:21.791Z,78.15
2018-07-28T08:30:57.100Z,78.89
2018-07-28T08:32:34.750Z,78.25
2018-07-28T08:34:11.615Z,78.21
2018-07-28T08:35:47.157Z,78.92
2018-07-28T08:37:22.793Z,78.87
2018-07-28T08:38:57.987Z,79.21
2018-07-28T08:40:34.530Z,77.68
2018-07-28T08:42:09.872Z,77.76
2018-07-28T08:43:46.276Z,77.94
2018-07-28T08:45:22.488Z,77.07
2018-07-28T08:46:58.475Z,77.10
2018-07-28T08:48:34.391Z,77.36
2018-07-28T08:50:11.684Z,76.41
2018-07-28T08:51:49.122Z,77.66
2018-07-28T08:53:34.129Z,78.76
2018-07-28T08:55:24.891Z,77.80
2018-07-28T08:57:04.193Z,77.64
2018-07-28T08:58:45.413Z,77.19
2018-07-28T09:00:20.866Z,77.13
2018-07-28T09:01:57.541Z,77.47
2018-07-28T09:03:41.060Z,77.74
2018-07-28T09:05:20.193Z,77.60
2018-07-28T09:06:58.152Z,76.88
2018-07-28T09:08:34.862Z,76.11
2018-07-28T09:12:34.745Z,76.21
2018-07-28T09:16:17.781Z,75.07
2018-07-28T09:18:09.825Z,76.29
2018-07-28T09:19:46.030Z,76.54
2018-07-28T09:21:21.426Z,75.13
2018-07-28T09:23:55.079Z,76.51
2018-07-28T09:28:15.041Z,76.31
2018-07-28T09:29:50.417Z,75.96
2018-07-28T09:31:27.273Z,75.84
2018-07-28T09:33:05.384Z,75.97
2018-07-28T09:34:40.771Z,77.40
2018-07-28T09:36:16.498Z,77.45
2018-07-28T09:37:53.464Z,76.33
2018-07-28T09:39:28.945Z,76.53
2018-07-28T09:41:06.038Z,76.68
2018-07-28T09:43:14.803Z,76.82
2018-07-28T09:44:57.738Z,77.07
2018-07-28T09:46:33.129Z,78.15
2018-07-28T09:50:07.488Z,76.68
2018-07-28T09:51:52.783Z,76.90
2018-07-28T09:53:32.102Z,76.02
2018-07-28T09:55:08.008Z,75.66
2018-07-28T09:57:00.369Z,75.17
2018-07-28T09:58:40.585Z,75.32
2018-07-28T10:00:25.395Z,75.55
2018-07-28T10:04:23.891Z,75.96
2018-07-28T10:06:00.456Z,71.57
2018-07-28T10:07:36.986Z,74.05
2018-07-28T10:09:14.234Z,73.10
2018-07-28T10:10:50.784Z,71.43
2018-07-28T10:12:30.087Z,70.80
2018-07-28T10:14:08.240Z,72.98
2018-07-28T10:16:06.339Z,68.27
2018-07-28T10:22:21.732Z,67.94
2018-07-28T10:24:17.223Z,65.46
2018-07-28T10:32:34.586Z,64.93
2018-07-28T10:36:22.981Z,64.83
2018-07-28T10:38:04.339Z,64.29
2018-07-28T10:39:41.482Z,62.89
2018-07-28T10:41:19.573Z,64.50
2018-07-28T10:42:58.557Z,62.51
2018-07-28T10:44:42.470Z,62.48
2018-07-28T10:46:23.817Z,64.76
2018-07-28T10:48:08.264Z,63.03
2018-07-28T10:49:49.528Z,64.74
2018-07-28T10:51:33.300Z,63.08
2018-07-28T10:53:21.284Z,63.14
2018-07-28T10:55:05.249Z,63.41
2018-07-28T10:56:43.669Z,60.19
2018-07-28T10:58:28.380Z,58.52
2018-07-28T11:00:16.494Z,59.04
2018-07-28T11:01:54.516Z,59.90
2018-07-28T11:03:30.964Z,60.60
2018-07-28T11:05:17.425Z,59.10
2018-07-28T11:07:03.371Z,58.27
2018-07-28T11:08:42.065Z,58.36
2018-07-28T11:10:25.823Z,58.04
2018-07-28T11:12:02.837Z,56.05
2018-07-28T11:13:46.549Z,56.92
2018-07-28T11:15:48.997Z,56.25
2018-07-28T11:17:44.683Z,56.26
2018-07-28T11:19:29.469Z,56.85
2018-07-28T11:21:08.253Z,56.23
2018-07-28T11:22:52.517Z,57.01
2018-07-28T11:24:36.058Z,55.12
2018-07-28T11:26:34.182Z,54.88
2018-07-28T11:28:26.739Z,53.91
2018-07-28T11:30:25.353Z,52.53
2018-07-28T11:32:14.019Z,55.36
2018-07-28T11:34:05.068Z,52.80
2018-07-28T11:36:01.970Z,51.67
2018-07-28T11:38:08.712Z,51.83
2018-07-28T11:40:05.281Z,51.19
2018-07-28T11:41:55.245Z,47.16
2018-07-28T11:43:43.751Z,48.68
2018-07-28T11:45:45.235Z,48.65
2018-07-28T11:47:32.512Z,49.66
2018-07-28T11:49:18.101Z,48.59
2018-07-28T11:51:08.975Z,47.43
2018-07-28T11:52:54.161Z,47.26
2018-07-28T11:54:29.801Z,44.55
2018-07-28T11:56:08.932Z,46.63
2018-07-28T11:58:10.540Z,47.76
2018-07-28T12:00:07.875Z,47.16
2018-07-28T12:01:59.312Z,47.03
2018-07-28T12:06:01.958Z,45.69
2018-07-28T12:07:46.208Z,46.33
2018-07-28T12:09:24.656Z,49.49
2018-07-28T12:11:01.325Z,48.78
2018-07-28T12:12:37.603Z,47.48
2018-07-28T12:14:23.696Z,47.18
2018-07-28T12:16:08.930Z,48.93
2018-07-28T12:17:53.654Z,48.04
2018-07-28T12:19:33.135Z,49.95
2018-07-28T12:21:13.536Z,49.67
2018-07-28T12:22:49.114Z,49.05
2018-07-28T12:24:29.332Z,49.65
2018-07-28T12:26:37.775Z,49.07
2018-07-28T12:28:45.565Z,50.67
2018-07-28T12:30:22.811Z,52.09
2018-07-28T12:32:04.239Z,50.81
2018-07-28T12:33:42.429Z,52.47
2018-07-28T12:35:18.762Z,52.07
2018-07-28T12:36:57.356Z,51.85
2018-07-28T12:38:33.021Z,52.99
2018-07-28T12:40:09.843Z,52.23
2018-07-28T12:41:49.593Z,53.37
2018-07-28T12:43:26.044Z,53.00
2018-07-28T12:45:03.249Z,54.69
2018-07-28T12:46:41.122Z,50.88
2018-07-28T12:48:16.457Z,51.53
2018-07-28T12:49:52.557Z,49.09
2018-07-28T12:51:28.705Z,49.14
2018-07-28T12:53:04.056Z,51.94
2018-07-28T12:56:19.195Z,48.90
2018-07-28T12:57:56.052Z,49.37
2018-07-28T12:59:32.036Z,49.64
2018-07-28T13:01:08.770Z,48.38
2018-07-28T13:02:47.721Z,48.48
2018-07-28T13:04:27.192Z,52.53
2018-07-28T13:06:07.162Z,48.18
2018-07-28T13:07:42.453Z,48.26
2018-07-28T13:09:26.723Z,49.29
2018-07-28T13:11:05.550Z,49.15
2018-07-28T13:12:41.611Z,46.87
2018-07-28T13:14:31.471Z,45.97
2018-07-28T13:16:09.514Z,44.02
2018-07-28T13:17:45.588Z,42.86
2018-07-28T13:19:32.581Z,43.84
2018-07-28T13:21:11.342Z,43.87
2018-07-28T13:23:08.789Z,42.44
2018-07-28T13:24:47.614Z,42.45
2018-07-28T13:26:23.221Z,44.61
2018-07-28T13:27:59.613Z,43.93
2018-07-28T13:29:35.293Z,44.75
2018-07-28T13:31:13.948Z,45.64
2018-07-28T13:32:50.639Z,46.12
2018-07-28T13:34:26.345Z,46.72
2018-07-28T13:36:03.401Z,46.05
2018-07-28T13:37:40.392Z,49.37
2018-07-28T13:39:19.338Z,46.64
2018-07-28T13:40:55.684Z,47.43
2018-07-28T13:42:33.711Z,51.58
2018-07-28T13:44:10.466Z,47.10
2018-07-28T13:45:49.304Z,47.14
2018-07-28T13:47:24.765Z,46.95
2018-07-28T13:49:11.062Z,49.03
2018-07-28T13:50:51.483Z,46.61
2018-07-28T13:52:27.852Z,46.68
2018-07-28T13:54:03.921Z,47.75
2018-07-28T13:55:40.928Z,46.74
2018-07-28T13:57:19.285Z,46.73
2018-07-28T13:58:55.593Z,47.19
2018-07-28T14:00:33.649Z,46.87
2018-07-28T14:02:12.235Z,48.16
2018-07-28T14:03:51.256Z,47.47
2018-07-28T14:05:29.657Z,47.59
2018-07-28T14:08:38.041Z,47.24
2018-07-28T14:10:27.836Z,47.58
2018-07-28T14:12:04.424Z,48.69
2018-07-28T14:13:42.803Z,49.05
2018-07-28T14:15:21.789Z,47.75
2018-07-28T14:16:57.982Z,48.60
2018-07-28T14:18:39.269Z,49.39
2018-07-28T14:20:18.661Z,48.77
2018-07-28T14:21:58.100Z,49.24
2018-07-28T14:23:35.915Z,50.17
2018-07-28T14:25:18.254Z,51.91
2018-07-28T14:26:53.806Z,50.11
2018-07-28T14:28:29.851Z,52.51
2018-07-28T14:30:09.766Z,51.30
2018-07-28T14:31:45.859Z,51.98
2018-07-28T14:33:21.958Z,51.25
2018-07-28T14:35:01.753Z,52.77
2018-07-28T14:36:38.687Z,52.30
2018-07-28T14:38:14.962Z,53.28
2018-07-28T14:39:50.556Z,54.04
2018-07-28T14:41:28.128Z,54.36
2018-07-28T14:43:04.416Z,54.91
2018-07-28T14:44:49.985Z,56.59
2018-07-28T14:46:28.939Z,58.78
2018-07-28T14:48:08.208Z,56.38
2018-07-28T14:49:45.053Z,56.26
2018-07-28T14:51:25.924Z,56.54
2018-07-28T14:53:01.708Z,56.90
2018-07-28T14:54:39.825Z,58.76
2018-07-28T14:56:15.341Z,57.04
2018-07-28T14:57:54.565Z,57.02
2018-07-28T14:59:31.427Z,58.01
2018-07-28T15:01:07.158Z,57.13
2018-07-28T15:02:42.657Z,57.19
2018-07-28T15:04:18.529Z,55.68
2018-07-28T15:05:53.802Z,57.28
2018-07-28T15:07:29.603Z,57.26
2018-07-28T15:09:10.231Z,55.50
2018-07-28T15:10:52.562Z,57.67
2018-07-28T15:12:29.512Z,58.39
2018-07-28T15:14:12.683Z,57.49
2018-07-28T15:15:50.032Z,56.72
2018-07-28T15:17:28.876Z,56.05
2018-07-28T15:19:04.174Z,57.75
2018-07-28T15:20:41.867Z,58.93
2018-07-28T15:22:23.433Z,59.59
2018-07-28T15:23:59.924Z,58.31
2018-07-28T15:25:37.744Z,59.64
2018-07-28T15:27:16.982Z,59.73
2018-07-28T15:28:53.812Z,60.04
2018-07-28T15:30:32.198Z,59.50
2018-07-28T15:32:12.624Z,60.49
2018-07-28T15:33:49.599Z,59.33
2018-07-28T15:35:28.803Z,59.68
2018-07-28T15:37:06.625Z,60.65
2018-07-28T15:38:45.481Z,60.27
2018-07-28T15:40:22.356Z,61.66
2018-07-28T15:41:58.682Z,61.76
2018-07-28T15:43:41.585Z,61.72
2018-07-28T15:45:19.350Z,60.52
2018-07-28T15:46:58.836Z,61.71
2018-07-28T15:48:34.653Z,64.49
2018-07-28T15:50:10.961Z,64.77
2018-07-28T15:51:49.734Z,63.91
2018-07-28T15:53:25.556Z,66.08
2018-07-28T15:55:03.722Z,67.38
2018-07-28T15:56:41.250Z,65.96
2018-07-28T15:58:24.664Z,65.82
2018-07-28T16:00:04.766Z,67.08
2018-07-28T16:01:43.494Z,67.62
2018-07-28T16:03:22.841Z,66.79
2018-07-28T16:05:00.511Z,67.42
2018-07-28T16:06:40.087Z,68.06
2018-07-28T16:08:17.895Z,68.83
2018-07-28T16:09:56.678Z,67.82
2018-07-28T16:11:33.432Z,69.56
2018-07-28T16:13:12.085Z,68.68
2018-07-28T16:15:01.405Z,68.55
2018-07-28T16:16:43.573Z,68.68
2018-07-28T16:18:26.077Z,67.42
2018-07-28T16:20:05.881Z,66.02
2018-07-28T16:21:45.524Z,65.44
2018-07-28T16:23:31.082Z,63.81
2018-07-28T16:25:10.094Z,65.84
2018-07-28T16:26:48.568Z,63.93
2018-07-28T16:28:25.377Z,63.42
2018-07-28T16:30:09.712Z,63.53
2018-07-28T16:31:47.509Z,61.22
2018-07-28T16:33:25.080Z,61.26
2018-07-28T16:35:08.285Z,61.08
2018-07-28T16:36:45.435Z,60.12
2018-07-28T16:38:23.302Z,60.24
2018-07-28T16:39:58.387Z,59.64
2018-07-28T16:41:35.264Z,59.93
2018-07-28T16:43:10.670Z,59.31
2018-07-28T16:44:47.149Z,59.04
2018-07-28T16:46:31.998Z,57.98
2018-07-28T16:48:09.096Z,59.27
2018-07-28T16:49:44.696Z,59.35
2018-07-28T16:51:20.439Z,56.52
2018-07-28T16:53:08.589Z,57.59
2018-07-28T16:54:44.464Z,57.19
2018-07-28T16:56:21.241Z,55.87
2018-07-28T16:58:01.673Z,55.30
2018-07-28T16:59:37.487Z,56.12
2018-07-28T17:01:12.698Z,55.54
2018-07-28T17:02:47.897Z,55.66
2018-07-28T17:04:25.279Z,55.18
2018-07-28T17:06:03.901Z,55.51
2018-07-28T17:07:40.568Z,54.89
2018-07-28T17:09:16.053Z,56.15
2018-07-28T17:10:53.421Z,56.12
2018-07-28T17:12:31.157Z,54.79
2018-07-28T17:14:14.686Z,54.52
2018-07-28T17:15:52.654Z,53.14
2018-07-28T17:17:30.611Z,53.62
2018-07-28T17:19:09.012Z,52.05
2018-07-28T17:20:47.403Z,52.52
2018-07-28T17:22:25.157Z,51.85
2018-07-28T17:24:01.547Z,53.28
2018-07-28T17:25:53.503Z,53.91
2018-07-28T17:27:35.403Z,53.95
2018-07-28T17:29:18.350Z,53.16
2018-07-28T17:31:14.217Z,51.87
2018-07-28T17:35:08.534Z,51.35
2018-07-28T17:38:29.095Z,50.65
2018-07-28T17:40:08.656Z,51.80
2018-07-28T17:41:44.415Z,52.38
2018-07-28T17:43:21.445Z,53.38
2018-07-28T17:45:06.664Z,52.91
2018-07-28T17:46:43.959Z,53.18
2018-07-28T17:48:24.590Z,53.56
2018-07-28T17:50:06.472Z,53.67
2018-07-28T17:51:46.186Z,54.97
2018-07-28T17:53:25.561Z,53.36
2018-07-28T17:55:01.322Z,54.00
2018-07-28T17:56:39.184Z,56.45
2018-07-28T17:58:16.646Z,55.66
2018-07-28T17:59:55.230Z,54.66
2018-07-28T18:01:32.603Z,56.17
2018-07-28T18:03:09.148Z,55.62
2018-07-28T18:04:46.523Z,54.61
2018-07-28T18:06:25.138Z,54.88
2018-07-28T18:08:09.769Z,53.96
2018-07-28T18:09:45.532Z,53.42
2018-07-28T18:11:24.044Z,53.96
2018-07-28T18:13:01.616Z,52.80
2018-07-28T18:14:42.342Z,53.34
2018-07-28T18:17:46.103Z,51.57
2018-07-28T18:19:31.768Z,52.36
2018-07-28T18:21:09.015Z,52.97
2018-07-28T18:22:50.802Z,53.65
2018-07-28T18:24:31.474Z,54.73
2018-07-28T18:26:16.044Z,54.50
2018-07-28T18:27:55.295Z,54.59
2018-07-28T18:29:37.105Z,56.37
2018-07-28T18:31:14.806Z,57.62
2018-07-28T18:32:59.762Z,56.83
2018-07-28T18:34:38.589Z,58.09
2018-07-28T18:36:19.235Z,58.61
2018-07-28T18:37:56.789Z,59.07
2018-07-28T18:39:35.039Z,59.46
2018-07-28T18:41:13.293Z,59.42
2018-07-28T18:42:52.361Z,61.40
2018-07-28T18:44:28.582Z,61.92
2018-07-28T18:46:04.870Z,63.30
2018-07-28T18:47:41.451Z,64.06
2018-07-28T18:49:20.111Z,66.20
2018-07-28T18:51:00.003Z,67.48
2018-07-28T18:52:37.642Z,67.62
2018-07-28T18:54:16.832Z,67.56
2018-07-28T18:55:55.798Z,68.69
2018-07-28T18:57:35.453Z,69.66
2018-07-28T18:59:11.511Z,69.79
2018-07-28T19:00:54.111Z,70.29
2018-07-28T19:02:31.112Z,71.35
2018-07-28T19:04:08.791Z,71.56
2018-07-28T19:05:46.521Z,70.98
2018-07-28T19:07:23.255Z,72.18
2018-07-28T19:09:05.489Z,71.72
2018-07-28T19:10:42.059Z,72.56
2018-07-28T19:12:18.909Z,72.56
2018-07-28T19:14:01.544Z,73.09
2018-07-28T19:15:37.891Z,72.79
2018-07-28T19:17:19.991Z,73.66
2018-07-28T19:19:04.233Z,73.02
2018-07-28T19:20:44.897Z,73.36
2018-07-28T19:22:24.939Z,74.20
2018-07-28T19:24:01.330Z,74.18
2018-07-28T19:25:38.531Z,74.55
2018-07-28T19:27:14.650Z,74.41
2018-07-28T19:28:55.463Z,74.91
2018-07-28T19:30:33.875Z,75.07
2018-07-28T19:32:12.960Z,75.44
2018-07-28T19:33:51.059Z,75.13
2018-07-28T19:35:33.508Z,74.98
2018-07-28T19:37:20.445Z,75.34
2018-07-28T19:39:04.166Z,76.40
2018-07-28T19:43:05.214Z,75.80
2018-07-28T19:44:45.980Z,76.11
2018-07-28T19:46:22.738Z,77.08
2018-07-28T19:48:02.327Z,76.39
2018-07-28T19:49:43.198Z,77.17
2018-07-28T19:51:31.819Z,77.68
2018-07-28T19:53:16.500Z,77.94
2018-07-28T19:55:14.133Z,78.23
2018-07-28T19:56:52.739Z,77.81
2018-07-28T19:58:40.862Z,77.97
2018-07-28T20:00:17.718Z,78.85
2018-07-28T20:01:55.289Z,78.43
2018-07-28T20:03:31.453Z,79.27
2018-07-28T20:05:10.479Z,79.17
2018-07-28T20:06:48.847Z,79.15
2018-07-28T20:08:25.478Z,79.05
2018-07-28T20:10:02.854Z,78.72
2018-07-28T20:11:38.465Z,78.94
2018-07-28T20:13:19.006Z,80.45
2018-07-28T20:14:59.424Z,79.66
2018-07-28T20:16:45.147Z,79.48
2018-07-28T20:18:24.449Z,80.64
2018-07-28T20:20:02.532Z,80.44
2018-07-28T20:21:47.245Z,80.54
2018-07-28T20:23:29.607Z,80.58
2018-07-28T20:25:22.500Z,81.18
2018-07-28T20:27:03.393Z,81.37
2018-07-28T20:28:49.208Z,81.25
2018-07-28T20:30:28.797Z,82.55
2018-07-28T20:32:13.472Z,82.64
2018-07-28T20:33:53.395Z,82.26
2018-07-28T20:35:38.202Z,82.78
2018-07-28T20:37:23.737Z,82.53
2018-07-28T20:38:59.543Z,82.47
2018-07-28T20:40:53.367Z,82.23
2018-07-28T20:42:52.174Z,82.30
2018-07-28T20:44:36.626Z,82.46
2018-07-28T20:46:15.838Z,82.44
2018-07-28T20:47:59.730Z,82.42
2018-07-28T20:49:37.303Z,83.11
2018-07-28T20:51:17.196Z,83.23
2018-07-28T20:53:00.466Z,83.74
2018-07-28T20:54:38.390Z,83.98
2018-07-28T20:56:16.330Z,83.92
2018-07-28T20:57:58.629Z,84.08
2018-07-28T20:59:44.642Z,84.72
2018-07-28T21:01:23.693Z,84.51
2018-07-28T21:03:06.339Z,84.15
2018-07-28T21:04:48.377Z,84.66
2018-07-28T21:06:41.535Z,84.87
2018-07-28T21:08:22.954Z,84.74
2018-07-28T21:12:00.472Z,84.15
2018-07-28T21:13:45.453Z,84.71
2018-07-28T21:15:28.674Z,84.59
2018-07-28T21:17:20.829Z,85.06
2018-07-28T21:19:23.954Z,85.28
2018-07-28T21:21:29.236Z,85.63
2018-07-28T21:23:19.628Z,85.56
2018-07-28T21:25:06.080Z,85.74
2018-07-28T21:26:52.965Z,85.64
2018-07-28T21:28:35.477Z,86.18
2018-07-28T21:30:36.072Z,85.76
2018-07-28T21:32:13.043Z,86.07
2018-07-28T21:33:48.309Z,85.75
2018-07-28T21:35:25.302Z,86.46
2018-07-28T21:37:02.332Z,86.44
2018-07-28T21:38:49.956Z,86.81
2018-07-28T21:40:30.913Z,86.04
2018-07-28T21:42:15.481Z,86.95
2018-07-28T21:43:57.381Z,86.37
2018-07-28T21:45:43.378Z,85.80
2018-07-28T21:47:19.355Z,87.09
2018-07-28T21:48:57.946Z,86.37
2018-07-28T21:50:36.607Z,86.71
2018-07-28T21:52:20.546Z,86.42
2018-07-28T21:54:08.714Z,86.27
2018-07-28T21:55:49.474Z,86.07
2018-07-28T21:57:28.485Z,86.69
2018-07-28T21:59:04.935Z,86.65
2018-07-28T22:00:46.613Z,86.85
2018-07-28T22:02:22.577Z,87.15
2018-07-28T22:04:03.163Z,87.62
2018-07-28T22:05:39.359Z,87.55
2018-07-28T22:07:17.235Z,87.76
2018-07-28T22:08:54.611Z,87.78